createdAt,value
2023-04-28T00:01:27.718Z,34.29
2023-04-28T00:03:55.473Z,34.04
2023-04-28T00:06:22.211Z,34.19
2023-04-28T00:08:48.903Z,34.13
2023-04-28T00:11:15.458Z,34.71
2023-04-28T00:13:42.012Z,33.97
2023-04-28T00:16:08.612Z,34.52
2023-04-28T00:18:35.296Z,34.31
2023-04-28T00:21:01.940Z,34.35
2023-04-28T00:23:28.625Z,33.97
2023-04-28T00:25:57.354Z,34.27
2023-04-28T00:28:34.138Z,34.26
2023-04-28T00:31:03.004Z,34.02
2023-04-28T00:33:29.546Z,34.30
2023-04-28T00:36:00.788Z,34.07
2023-04-28T00:38:27.526Z,34.32
2023-04-28T00:40:54.104Z,34.11
2023-04-28T00:43:20.724Z,34.28
2023-04-28T00:45:47.338Z,34.12
2023-04-28T00:48:14.155Z,34.39
2023-04-28T00:50:40.910Z,34.12
2023-04-28T00:53:08.070Z,34.07
2023-04-28T00:55:35.395Z,34.08
2023-04-28T00:58:02.665Z,34.07
2023-04-28T01:00:29.372Z,34.22
2023-04-28T01:02:57.365Z,34.21
2023-04-28T01:05:28.947Z,34.29
2023-04-28T01:07:56.506Z,34.24
2023-04-28T01:10:23.223Z,34.28
2023-04-28T01:12:49.931Z,34.20
2023-04-28T01:15:18.479Z,34.03
2023-04-28T01:17:47.705Z,34.05
2023-04-28T01:20:15.368Z,34.14
2023-04-28T01:22:42.563Z,34.15
2023-04-28T01:25:09.670Z,34.55
2023-04-28T01:27:36.325Z,34.35
2023-04-28T01:30:03.273Z,34.33
2023-04-28T01:32:30.013Z,34.30
2023-04-28T01:34:56.663Z,33.91
2023-04-28T01:37:26.486Z,34.17
2023-04-28T01:39:53.866Z,34.42
2023-04-28T01:42:20.520Z,34.19
2023-04-28T01:44:47.131Z,34.23
2023-04-28T01:47:14.004Z,34.29
2023-04-28T01:49:40.621Z,34.45
2023-04-28T01:52:07.958Z,34.13
2023-04-28T01:54:35.056Z,34.25
2023-04-28T01:57:03.225Z,34.08
2023-04-28T01:59:31.027Z,33.90
2023-04-28T02:01:57.988Z,34.29
2023-04-28T02:04:25.004Z,34.12
2023-04-28T02:06:51.826Z,34.16
2023-04-28T02:09:18.372Z,34.17
2023-04-28T02:11:45.260Z,34.54
2023-04-28T02:14:11.911Z,34.27
2023-04-28T02:16:38.526Z,34.18
2023-04-28T02:19:05.047Z,34.13
2023-04-28T02:21:31.895Z,34.17
2023-04-28T02:23:58.754Z,34.36
2023-04-28T02:26:25.862Z,34.10
2023-04-28T02:28:52.480Z,34.23
2023-04-28T02:31:19.210Z,34.22
2023-04-28T02:33:46.532Z,34.57
2023-04-28T02:36:13.396Z,34.24
2023-04-28T02:38:41.659Z,34.10
2023-04-28T02:41:11.395Z,34.15
2023-04-28T02:43:38.037Z,34.24
2023-04-28T02:46:05.172Z,34.22
2023-04-28T02:48:33.096Z,34.22
2023-04-28T02:50:59.784Z,34.37
2023-04-28T02:53:26.504Z,34.14
2023-04-28T02:55:53.214Z,34.30
2023-04-28T02:58:19.913Z,34.37
2023-04-28T03:00:47.192Z,34.12
2023-04-28T03:03:14.484Z,34.09
2023-04-28T03:05:41.564Z,34.18
2023-04-28T03:08:08.054Z,34.20
2023-04-28T03:10:34.796Z,34.32
2023-04-28T03:13:02.391Z,34.41
2023-04-28T03:15:29.998Z,34.02
2023-04-28T03:17:57.591Z,34.44
2023-04-28T03:20:24.294Z,34.32
2023-04-28T03:22:50.877Z,34.10
2023-04-28T03:25:18.375Z,34.07
2023-04-28T03:27:48.453Z,34.53
2023-04-28T03:30:15.233Z,34.29
2023-04-28T03:32:41.872Z,34.55
2023-04-28T03:35:09.130Z,34.18
2023-04-28T03:37:36.330Z,34.31
2023-04-28T03:40:03.411Z,34.12
2023-04-28T03:42:39.927Z,34.35
2023-04-28T03:45:12.458Z,33.89
2023-04-28T03:47:39.227Z,34.33
2023-04-28T03:50:06.455Z,34.40
2023-04-28T03:52:33.049Z,34.33
2023-04-28T03:55:00.017Z,34.30
2023-04-28T03:57:27.015Z,34.22
2023-04-28T03:59:53.519Z,34.09
2023-04-28T04:02:20.338Z,34.72
2023-04-28T04:04:47.298Z,34.67
2023-04-28T04:07:14.324Z,34.41
2023-04-28T04:09:42.099Z,34.49
2023-04-28T04:12:09.439Z,34.69
2023-04-28T04:14:36.895Z,34.70
2023-04-28T04:17:03.858Z,34.73
2023-04-28T04:19:30.770Z,34.77
2023-04-28T04:21:57.685Z,34.78
2023-04-28T04:24:25.078Z,34.98
2023-04-28T04:26:51.913Z,34.97
2023-04-28T04:29:29.042Z,34.90
2023-04-28T04:31:56.378Z,35.13
2023-04-28T04:34:23.021Z,36.45
2023-04-28T04:36:49.678Z,36.78
2023-04-28T04:39:16.818Z,37.24
2023-04-28T04:41:43.448Z,37.32
2023-04-28T04:44:35.855Z,36.92
2023-04-28T04:47:06.157Z,36.81
2023-04-28T04:49:34.236Z,36.81
2023-04-28T04:52:02.915Z,36.57
2023-04-28T04:54:30.392Z,36.46
2023-04-28T04:56:58.224Z,36.37
2023-04-28T04:59:43.511Z,36.28
2023-04-28T05:02:15.875Z,36.32
2023-04-28T05:04:42.716Z,36.16
2023-04-28T05:07:10.639Z,36.16
2023-04-28T05:09:40.107Z,36.05
2023-04-28T05:12:07.477Z,36.02
2023-04-28T05:14:34.073Z,35.77
2023-04-28T05:17:00.794Z,35.76
2023-04-28T05:19:33.341Z,35.87
2023-04-28T05:22:01.090Z,35.71
2023-04-28T05:24:28.115Z,35.34
2023-04-28T05:26:58.717Z,35.51
2023-04-28T05:29:25.632Z,35.64
2023-04-28T05:31:52.215Z,35.47
2023-04-28T05:34:22.295Z,35.51
2023-04-28T05:36:49.484Z,35.41
2023-04-28T05:39:17.670Z,35.43
2023-04-28T05:41:44.594Z,35.64
2023-04-28T05:44:11.793Z,36.27
2023-04-28T05:46:39.628Z,36.11
2023-04-28T05:49:06.245Z,36.15
2023-04-28T05:51:36.928Z,35.99
2023-04-28T05:54:03.639Z,35.99
2023-04-28T05:56:33.250Z,36.04
2023-04-28T05:59:04.275Z,35.86
2023-04-28T06:01:32.119Z,36.08
2023-04-28T06:03:59.025Z,36.16
2023-04-28T06:06:27.796Z,36.21
2023-04-28T06:08:54.606Z,35.86
2023-04-28T06:11:22.621Z,36.07
2023-04-28T06:13:50.846Z,36.00
2023-04-28T06:16:18.928Z,35.83
2023-04-28T06:18:48.465Z,35.74
2023-04-28T06:21:17.334Z,35.80
2023-04-28T06:23:44.295Z,35.71
2023-04-28T06:26:10.954Z,35.73
2023-04-28T06:28:39.445Z,35.42
2023-04-28T06:31:07.681Z,35.46
2023-04-28T06:33:34.248Z,35.49
2023-04-28T06:36:01.304Z,35.21
2023-04-28T06:38:27.834Z,35.26
2023-04-28T06:40:54.417Z,34.91
2023-04-28T06:43:21.049Z,34.95
2023-04-28T06:46:01.112Z,34.87
2023-04-28T06:48:27.969Z,34.96
2023-04-28T06:50:54.630Z,34.74
2023-04-28T06:53:22.591Z,34.79
2023-04-28T06:55:49.208Z,34.57
2023-04-28T06:58:16.272Z,34.59
2023-04-28T07:00:42.843Z,34.30
2023-04-28T07:03:09.633Z,34.30
2023-04-28T07:05:36.327Z,34.39
2023-04-28T07:08:03.635Z,34.19
2023-04-28T07:10:30.183Z,34.40
2023-04-28T07:12:56.805Z,34.31
2023-04-28T07:15:24.549Z,34.13
2023-04-28T07:17:51.472Z,34.07
2023-04-28T07:20:18.357Z,34.05
2023-04-28T07:22:44.948Z,34.11
2023-04-28T07:25:11.879Z,34.09
2023-04-28T07:27:38.621Z,34.14
2023-04-28T07:30:18.419Z,34.02
2023-04-28T07:32:52.659Z,34.14
2023-04-28T07:35:19.234Z,34.09
2023-04-28T07:37:46.274Z,34.21
2023-04-28T07:40:13.020Z,34.16
2023-04-28T07:42:39.709Z,34.18
2023-04-28T07:45:06.830Z,33.83
2023-04-28T07:47:33.715Z,34.14
2023-04-28T07:50:03.439Z,33.73
2023-04-28T07:52:30.086Z,33.93
2023-04-28T07:54:56.675Z,34.02
2023-04-28T07:57:23.443Z,33.66
2023-04-28T07:59:50.512Z,33.86
2023-04-28T08:02:17.188Z,33.87
2023-04-28T08:04:43.980Z,33.59
2023-04-28T08:07:11.194Z,33.71
2023-04-28T08:09:37.823Z,33.92
2023-04-28T08:12:04.494Z,33.75
2023-04-28T08:14:30.994Z,33.72
2023-04-28T08:16:57.971Z,33.73
2023-04-28T08:19:24.685Z,33.39
2023-04-28T08:21:51.450Z,33.54
2023-04-28T08:24:18.274Z,33.59
2023-04-28T08:26:45.577Z,33.33
2023-04-28T08:29:12.547Z,33.21
2023-04-28T08:31:42.233Z,33.59
2023-04-28T08:34:08.762Z,33.41
2023-04-28T08:36:35.441Z,33.38
2023-04-28T08:39:04.382Z,33.27
2023-04-28T08:41:37.426Z,33.20
2023-04-28T08:44:08.918Z,33.08
2023-04-28T08:46:36.149Z,33.31
2023-04-28T08:49:06.341Z,32.95
2023-04-28T08:51:43.699Z,33.30
2023-04-28T08:54:29.503Z,33.20
2023-04-28T08:56:57.936Z,33.11
2023-04-28T08:59:24.787Z,33.37
2023-04-28T09:01:51.886Z,33.05
2023-04-28T09:04:19.774Z,32.99
2023-04-28T09:06:46.838Z,32.97
2023-04-28T09:09:27.358Z,32.95
2023-04-28T09:11:59.550Z,32.99
2023-04-28T09:14:32.993Z,33.15
2023-04-28T09:16:59.855Z,33.10
2023-04-28T09:19:34.522Z,33.10
2023-04-28T09:22:05.687Z,32.90
2023-04-28T09:24:40.521Z,32.77
2023-04-28T09:27:10.725Z,32.90
2023-04-28T09:29:38.611Z,32.74
2023-04-28T09:32:16.325Z,32.97
2023-04-28T09:34:50.691Z,32.83
2023-04-28T09:37:21.476Z,32.96
2023-04-28T09:39:52.739Z,32.91
2023-04-28T09:42:41.614Z,32.53
2023-04-28T09:45:10.379Z,32.83
2023-04-28T09:47:39.935Z,32.47
2023-04-28T09:50:14.338Z,32.62
2023-04-28T09:52:42.112Z,32.73
2023-04-28T09:55:09.039Z,32.69
2023-04-28T09:57:36.824Z,32.69
2023-04-28T10:00:08.924Z,32.63
2023-04-28T10:05:09.666Z,32.49
2023-04-28T10:07:37.750Z,32.50
2023-04-28T10:10:06.290Z,32.87
2023-04-28T10:12:33.183Z,32.56
2023-04-28T10:15:00.026Z,32.54
2023-04-28T10:17:29.141Z,32.84
2023-04-28T10:19:55.958Z,32.70
2023-04-28T10:22:53.629Z,32.62
2023-04-28T10:27:40.382Z,32.69
2023-04-28T10:30:26.486Z,32.81
2023-04-28T10:33:06.665Z,32.64
2023-04-28T10:35:36.168Z,32.77
2023-04-28T10:38:16.094Z,32.74
2023-04-28T10:40:51.052Z,32.81
2023-04-28T10:43:32.852Z,32.47
2023-04-28T10:46:02.821Z,32.88
2023-04-28T10:48:29.789Z,32.69
2023-04-28T10:51:09.797Z,32.68
2023-04-28T10:53:42.467Z,32.71
2023-04-28T10:56:09.662Z,32.76
2023-04-28T10:58:39.888Z,32.72
2023-04-28T11:01:22.184Z,32.35
2023-04-28T11:04:02.361Z,32.03
2023-04-28T11:06:39.472Z,32.18
2023-04-28T11:09:12.212Z,32.10
2023-04-28T11:11:40.232Z,32.09
2023-04-28T11:14:22.038Z,31.95
2023-04-28T11:16:50.480Z,32.37
2023-04-28T11:19:22.909Z,32.29
2023-04-28T11:21:50.138Z,32.04
2023-04-28T11:24:17.313Z,32.09
2023-04-28T11:26:44.674Z,32.11
2023-04-28T11:29:12.243Z,32.00
2023-04-28T11:31:50.905Z,32.29
2023-04-28T11:34:26.732Z,32.36
2023-04-28T11:36:54.913Z,31.75
2023-04-28T11:39:33.267Z,32.00
2023-04-28T11:42:02.831Z,31.69
2023-04-28T11:44:31.244Z,31.79
2023-04-28T11:47:01.086Z,31.86
2023-04-28T11:49:41.476Z,31.64
2023-04-28T11:52:09.112Z,31.89
2023-04-28T11:54:35.999Z,31.85
2023-04-28T11:57:08.866Z,31.72
2023-04-28T11:59:35.917Z,31.89
2023-04-28T12:02:05.617Z,31.91
2023-04-28T12:04:40.986Z,31.96
2023-04-28T12:07:10.537Z,31.97
2023-04-28T12:09:39.405Z,31.70
2023-04-28T12:12:14.419Z,32.13
2023-04-28T12:15:01.522Z,31.80
2023-04-28T12:17:32.221Z,31.87
2023-04-28T12:20:04.088Z,32.02
2023-04-28T12:22:31.406Z,31.85
2023-04-28T12:25:08.362Z,31.98
2023-04-28T12:27:39.054Z,31.81
2023-04-28T12:30:21.147Z,31.86
2023-04-28T12:32:48.384Z,31.99
2023-04-28T12:35:15.998Z,32.05
2023-04-28T12:37:43.186Z,31.97
2023-04-28T12:40:10.687Z,32.26
2023-04-28T12:42:37.388Z,31.97
2023-04-28T12:45:05.822Z,32.28
2023-04-28T12:47:32.548Z,32.11
2023-04-28T12:49:59.186Z,32.13
2023-04-28T12:52:26.538Z,31.98
2023-04-28T12:54:53.149Z,32.33
2023-04-28T12:57:20.521Z,31.70
2023-04-28T12:59:48.386Z,32.12
2023-04-28T13:02:15.531Z,31.68
2023-04-28T13:04:48.453Z,31.93
2023-04-28T13:07:16.175Z,31.97
2023-04-28T13:09:43.764Z,32.14
2023-04-28T13:12:11.832Z,32.24
2023-04-28T13:14:38.479Z,32.13
2023-04-28T13:17:05.074Z,32.03
2023-04-28T13:19:32.661Z,31.92
2023-04-28T13:21:59.367Z,31.80
2023-04-28T13:24:28.873Z,31.76
2023-04-28T13:26:55.421Z,31.73
2023-04-28T13:29:22.548Z,31.77
2023-04-28T13:31:49.330Z,31.79
2023-04-28T13:34:17.445Z,31.61
2023-04-28T13:36:45.038Z,31.85
2023-04-28T13:39:13.516Z,31.48
2023-04-28T13:41:40.359Z,31.64
2023-04-28T13:44:06.948Z,31.70
2023-04-28T13:46:34.031Z,31.83
2023-04-28T13:49:00.916Z,31.91
2023-04-28T13:51:28.760Z,31.99
2023-04-28T13:53:55.309Z,32.00
2023-04-28T13:56:21.928Z,31.80
2023-04-28T13:58:48.566Z,32.25
2023-04-28T14:01:15.455Z,31.88
2023-04-28T14:03:42.189Z,31.80
2023-04-28T14:06:09.173Z,31.68
2023-04-28T14:08:36.043Z,31.89
2023-04-28T14:11:02.652Z,32.08
2023-04-28T14:13:29.770Z,31.70
2023-04-28T14:15:59.473Z,31.96
2023-04-28T14:18:26.905Z,32.10
2023-04-28T14:20:54.499Z,31.92
2023-04-28T14:23:24.585Z,31.86
2023-04-28T14:25:55.986Z,31.70
2023-04-28T14:28:23.079Z,31.66
2023-04-28T14:30:50.081Z,31.51
2023-04-28T14:33:16.871Z,31.89
2023-04-28T14:35:43.461Z,31.75
2023-04-28T14:38:10.878Z,31.42
2023-04-28T14:40:37.471Z,31.48
2023-04-28T14:43:04.792Z,31.65
2023-04-28T14:45:31.539Z,31.47
2023-04-28T14:47:58.625Z,31.80
2023-04-28T14:50:26.885Z,31.53
2023-04-28T14:52:53.530Z,31.53
2023-04-28T14:55:20.158Z,31.47
2023-04-28T14:57:48.184Z,31.53
2023-04-28T15:00:15.364Z,31.26
2023-04-28T15:02:42.093Z,31.53
2023-04-28T15:05:09.639Z,31.61
2023-04-28T15:07:36.509Z,31.58
2023-04-28T15:10:03.094Z,31.10
2023-04-28T15:12:30.574Z,31.32
2023-04-28T15:14:57.929Z,31.27
2023-04-28T15:17:24.921Z,30.93
2023-04-28T15:19:51.876Z,31.30
2023-04-28T15:22:18.773Z,31.00
2023-04-28T15:24:46.569Z,30.90
2023-04-28T15:27:13.386Z,31.06
2023-04-28T15:29:40.034Z,31.09
2023-04-28T15:32:06.911Z,31.04
2023-04-28T15:34:33.807Z,31.08
2023-04-28T15:37:01.368Z,31.25
2023-04-28T15:39:28.509Z,31.04
2023-04-28T15:41:56.392Z,31.04
2023-04-28T15:44:23.164Z,30.86
2023-04-28T15:46:51.827Z,30.86
2023-04-28T15:49:18.404Z,31.15
2023-04-28T15:51:45.581Z,30.76
2023-04-28T15:54:12.602Z,30.97
2023-04-28T15:56:39.366Z,30.77
2023-04-28T15:59:05.847Z,30.87
2023-04-28T16:01:32.520Z,31.10
2023-04-28T16:03:59.283Z,30.81
2023-04-28T16:06:25.942Z,31.12
2023-04-28T16:08:52.574Z,31.22
2023-04-28T16:11:20.369Z,31.34
2023-04-28T16:13:46.895Z,31.20
2023-04-28T16:16:13.548Z,31.17
2023-04-28T16:18:40.121Z,31.17
2023-04-28T16:21:06.798Z,30.97
2023-04-28T16:23:33.696Z,31.34
2023-04-28T16:26:00.765Z,30.99
2023-04-28T16:28:27.558Z,31.39
2023-04-28T16:30:54.254Z,31.23
2023-04-28T16:33:20.750Z,31.32
2023-04-28T16:35:54.933Z,31.11
2023-04-28T16:38:21.841Z,31.24
2023-04-28T16:40:49.179Z,31.21
2023-04-28T16:43:15.947Z,31.08
2023-04-28T16:45:43.500Z,31.09
2023-04-28T16:48:10.149Z,31.06
2023-04-28T16:50:38.697Z,31.11
2023-04-28T16:53:06.659Z,31.05
2023-04-28T16:57:51.731Z,31.19
2023-04-28T17:00:18.850Z,31.12
2023-04-28T17:02:45.609Z,31.35
2023-04-28T17:05:12.619Z,31.61
2023-04-28T17:07:39.127Z,31.90
2023-04-28T17:10:09.453Z,31.80
2023-04-28T17:12:38.238Z,32.22
2023-04-28T17:15:06.953Z,32.57
2023-04-28T17:17:34.583Z,32.33
2023-04-28T17:20:02.326Z,32.42
2023-04-28T17:22:30.606Z,32.63
2023-04-28T17:24:59.802Z,32.69
2023-04-28T17:27:26.586Z,32.74
2023-04-28T17:29:53.575Z,32.85
2023-04-28T17:32:20.381Z,32.56
2023-04-28T17:34:47.469Z,32.51
2023-04-28T17:37:14.184Z,32.80
2023-04-28T17:39:40.706Z,32.76
2023-04-28T17:42:07.410Z,32.38
2023-04-28T17:44:33.916Z,32.50
2023-04-28T17:47:01.233Z,32.74
2023-04-28T17:49:27.975Z,32.48
2023-04-28T17:51:54.715Z,32.61
2023-04-28T17:54:21.228Z,32.48
2023-04-28T17:56:47.859Z,32.81
2023-04-28T17:59:15.898Z,32.84
2023-04-28T18:01:42.808Z,32.84
2023-04-28T18:04:09.538Z,32.74
2023-04-28T18:06:36.255Z,32.94
2023-04-28T18:09:02.812Z,33.02
2023-04-28T18:11:29.436Z,33.03
2023-04-28T18:13:56.312Z,33.14
2023-04-28T18:16:22.886Z,33.00
2023-04-28T18:18:49.449Z,33.09
2023-04-28T18:21:16.621Z,33.18
2023-04-28T18:23:43.319Z,33.07
2023-04-28T18:26:10.021Z,33.35
2023-04-28T18:28:36.839Z,33.39
2023-04-28T18:31:07.356Z,33.15
2023-04-28T18:33:34.072Z,33.65
2023-04-28T18:36:06.362Z,34.16
2023-04-28T18:38:37.227Z,34.20
2023-04-28T18:41:14.823Z,33.97
2023-04-28T18:43:42.897Z,34.16
2023-04-28T18:46:15.332Z,34.22
2023-04-28T18:48:42.239Z,34.12
2023-04-28T18:51:11.620Z,33.83
2023-04-28T18:53:40.930Z,34.08
2023-04-28T18:56:07.602Z,34.04
2023-04-28T18:58:37.171Z,33.75
2023-04-28T19:01:04.290Z,34.12
2023-04-28T19:03:31.808Z,33.87
2023-04-28T19:05:58.473Z,34.00
2023-04-28T19:08:28.064Z,33.78
2023-04-28T19:10:57.076Z,33.97
2023-04-28T19:13:26.534Z,33.74
2023-04-28T19:15:57.032Z,33.75
2023-04-28T19:18:23.648Z,34.06
2023-04-28T19:20:52.170Z,33.97
2023-04-28T19:23:21.871Z,33.70
2023-04-28T19:25:48.629Z,34.18
2023-04-28T19:28:15.431Z,34.60
2023-04-28T19:30:42.109Z,34.63
2023-04-28T19:33:09.450Z,35.37
2023-04-28T19:35:36.091Z,35.64
2023-04-28T19:38:02.796Z,36.06
2023-04-28T19:40:30.396Z,36.65
2023-04-28T19:42:57.374Z,37.12
2023-04-28T19:45:24.571Z,37.24
2023-04-28T19:47:52.323Z,37.15
2023-04-28T19:50:19.474Z,36.91
2023-04-28T19:52:46.426Z,37.34
2023-04-28T19:55:18.408Z,37.61
2023-04-28T19:57:45.423Z,37.79
2023-04-28T20:00:13.542Z,38.11
2023-04-28T20:02:40.728Z,38.03
2023-04-28T20:05:08.092Z,38.58
2023-04-28T20:07:42.470Z,38.54
2023-04-28T20:10:09.565Z,38.12
2023-04-28T20:12:36.126Z,38.21
2023-04-28T20:15:02.848Z,37.85
2023-04-28T20:17:29.391Z,37.69
2023-04-28T20:19:56.385Z,37.96
2023-04-28T20:22:23.222Z,37.80
2023-04-28T20:24:50.205Z,38.36
2023-04-28T20:27:16.802Z,38.87
2023-04-28T20:29:52.779Z,39.08
2023-04-28T20:32:22.671Z,39.19
2023-04-28T20:34:49.508Z,39.31
2023-04-28T20:37:24.606Z,39.48
2023-04-28T20:39:51.547Z,39.37
2023-04-28T20:42:18.415Z,39.49
2023-04-28T20:44:48.661Z,39.26
2023-04-28T20:47:24.756Z,39.47
2023-04-28T20:49:57.539Z,39.57
2023-04-28T20:52:24.242Z,39.44
2023-04-28T20:54:52.063Z,39.29
2023-04-28T20:57:18.911Z,39.47
2023-04-28T20:59:45.912Z,39.24
2023-04-28T21:02:12.670Z,39.41
2023-04-28T21:04:42.166Z,39.35
2023-04-28T21:07:08.752Z,39.44
2023-04-28T21:09:37.416Z,39.31
2023-04-28T21:12:04.434Z,39.35
2023-04-28T21:14:34.295Z,39.00
2023-04-28T21:17:03.392Z,39.30
2023-04-28T21:19:30.815Z,39.14
2023-04-28T21:21:58.321Z,39.46
2023-04-28T21:24:27.208Z,39.44
2023-04-28T21:26:53.862Z,39.25
2023-04-28T21:29:20.362Z,39.33
2023-04-28T21:31:47.412Z,39.53
2023-04-28T21:34:14.004Z,39.62
2023-04-28T21:36:40.602Z,39.74
2023-04-28T21:39:07.733Z,39.55
2023-04-28T21:41:34.504Z,39.02
2023-04-28T21:44:01.138Z,39.03
2023-04-28T21:46:28.185Z,38.97
2023-04-28T21:48:55.293Z,38.77
2023-04-28T21:51:21.878Z,38.79
2023-04-28T21:53:51.069Z,38.64
2023-04-28T21:56:20.197Z,38.65
2023-04-28T21:58:46.784Z,38.55
2023-04-28T22:01:17.955Z,38.36
2023-04-28T22:03:46.164Z,38.20
2023-04-28T22:06:13.596Z,38.26
2023-04-28T22:08:40.325Z,38.33
2023-04-28T22:11:06.937Z,37.88
2023-04-28T22:13:33.748Z,38.07
2023-04-28T22:16:01.845Z,37.99
2023-04-28T22:18:29.136Z,38.02
2023-04-28T22:20:55.744Z,37.93
2023-04-28T22:23:22.868Z,37.59
2023-04-28T22:25:50.170Z,37.89
2023-04-28T22:28:16.829Z,37.47
2023-04-28T22:30:46.676Z,37.77
2023-04-28T22:33:13.442Z,37.67
2023-04-28T22:35:40.556Z,37.41
2023-04-28T22:38:07.999Z,37.61
2023-04-28T22:40:34.551Z,37.26
2023-04-28T22:43:01.125Z,37.14
2023-04-28T22:45:28.744Z,37.38
2023-04-28T22:47:56.296Z,37.32
2023-04-28T22:50:23.087Z,37.13
2023-04-28T22:52:50.358Z,37.06
2023-04-28T22:55:17.061Z,36.90
2023-04-28T22:57:43.642Z,37.22
2023-04-28T23:00:10.669Z,37.44
2023-04-28T23:02:37.472Z,37.19
2023-04-28T23:05:04.732Z,36.86
2023-04-28T23:07:31.479Z,36.86
2023-04-28T23:09:57.999Z,36.89
2023-04-28T23:12:24.613Z,37.02
2023-04-28T23:14:51.173Z,36.59
2023-04-28T23:17:18.972Z,36.76
2023-04-28T23:19:45.532Z,36.84
2023-04-28T23:22:12.093Z,36.79
2023-04-28T23:24:42.292Z,36.76
2023-04-28T23:27:09.362Z,36.60
2023-04-28T23:29:36.161Z,36.37
2023-04-28T23:32:03.527Z,36.26
2023-04-28T23:34:33.402Z,36.52
2023-04-28T23:37:01.046Z,36.26
2023-04-28T23:39:29.877Z,36.18
2023-04-28T23:41:56.445Z,36.45
2023-04-28T23:44:22.965Z,36.08
2023-04-28T23:46:49.566Z,36.49
2023-04-28T23:49:16.426Z,36.07
2023-04-28T23:51:43.232Z,36.04
2023-04-28T23:54:09.819Z,36.34
2023-04-28T23:56:36.430Z,36.16
2023-04-28T23:59:03.272Z,36.23
